createdAt,value
2022-10-16T00:01:51.109Z,14.19
2022-10-16T00:04:19.990Z,14.08
2022-10-16T00:06:50.076Z,14.10
2022-10-16T00:09:18.584Z,14.08
2022-10-16T00:11:47.386Z,14.10
2022-10-16T00:14:17.655Z,14.07
2022-10-16T00:16:46.154Z,13.97
2022-10-16T00:19:15.052Z,14.04
2022-10-16T00:21:45.066Z,14.04
2022-10-16T00:24:15.066Z,14.07
2022-10-16T00:26:43.579Z,14.08
2022-10-16T00:29:12.259Z,14.06
2022-10-16T00:31:41.082Z,14.10
2022-10-16T00:34:09.587Z,14.09
2022-10-16T00:36:38.500Z,14.07
2022-10-16T00:39:07.006Z,14.06
2022-10-16T00:41:37.154Z,14.06
2022-10-16T00:44:27.326Z,14.05
2022-10-16T00:46:56.420Z,14.03
2022-10-16T00:49:24.948Z,14.06
2022-10-16T00:51:56.068Z,14.04
2022-10-16T00:54:27.907Z,13.99
2022-10-16T00:57:00.466Z,14.03
2022-10-16T00:59:31.370Z,14.01
2022-10-16T01:02:01.249Z,14.03
2022-10-16T01:04:33.599Z,14.01
2022-10-16T01:07:09.275Z,14.01
2022-10-16T01:09:47.906Z,13.99
2022-10-16T01:12:24.504Z,14.00
2022-10-16T01:15:00.007Z,13.96
2022-10-16T01:17:35.829Z,13.96
2022-10-16T01:20:12.850Z,13.85
2022-10-16T01:22:50.551Z,13.82
2022-10-16T01:25:28.035Z,13.84
2022-10-16T01:27:59.825Z,13.87
2022-10-16T01:30:32.896Z,13.88
2022-10-16T01:33:06.716Z,13.90
2022-10-16T01:35:39.863Z,13.90
2022-10-16T01:38:15.611Z,13.92
2022-10-16T01:40:48.835Z,13.91
2022-10-16T01:43:22.955Z,13.96
2022-10-16T01:45:52.277Z,14.02
2022-10-16T01:48:22.487Z,14.05
2022-10-16T01:51:00.996Z,14.01
2022-10-16T01:53:30.203Z,13.97
2022-10-16T01:56:00.844Z,13.99
2022-10-16T01:58:35.933Z,13.97
2022-10-16T02:01:06.849Z,13.96
2022-10-16T02:03:36.954Z,13.99
2022-10-16T02:06:05.536Z,14.00
2022-10-16T02:08:34.531Z,13.99
2022-10-16T02:11:04.048Z,14.00
2022-10-16T02:13:40.002Z,14.04
2022-10-16T02:16:09.715Z,14.02
2022-10-16T02:18:38.409Z,14.04
2022-10-16T02:21:16.608Z,14.04
2022-10-16T02:23:51.662Z,14.02
2022-10-16T02:26:33.141Z,14.05
2022-10-16T02:29:11.761Z,14.04
2022-10-16T02:31:44.440Z,14.02
2022-10-16T02:34:14.977Z,14.05
2022-10-16T02:36:44.992Z,14.05
2022-10-16T02:39:14.087Z,14.05
2022-10-16T02:41:42.715Z,14.06
2022-10-16T02:44:12.603Z,14.06
2022-10-16T02:46:41.091Z,14.06
2022-10-16T02:49:09.691Z,14.01
2022-10-16T02:51:38.257Z,14.06
2022-10-16T02:54:06.875Z,14.08
2022-10-16T02:56:35.687Z,14.08
2022-10-16T02:59:04.370Z,14.12
2022-10-16T03:01:34.406Z,14.11
2022-10-16T03:04:03.261Z,14.15
2022-10-16T03:06:31.752Z,14.15
2022-10-16T03:09:00.545Z,14.15
2022-10-16T03:11:29.436Z,14.16
2022-10-16T03:13:58.034Z,14.20
2022-10-16T03:16:26.619Z,14.20
2022-10-16T03:18:56.755Z,14.24
2022-10-16T03:21:25.532Z,14.22
2022-10-16T03:23:54.215Z,14.25
2022-10-16T03:26:22.802Z,14.27
2022-10-16T03:28:51.650Z,14.27
2022-10-16T03:31:20.118Z,14.31
2022-10-16T03:33:48.580Z,14.32
2022-10-16T03:36:18.933Z,14.35
2022-10-16T03:38:47.592Z,14.37
2022-10-16T03:41:16.201Z,14.41
2022-10-16T03:43:44.793Z,14.40
2022-10-16T03:46:13.363Z,14.45
2022-10-16T03:48:42.302Z,14.46
2022-10-16T03:51:10.784Z,14.46
2022-10-16T03:53:40.680Z,14.47
2022-10-16T03:56:09.353Z,14.51
2022-10-16T03:58:37.757Z,14.50
2022-10-16T04:01:06.370Z,14.52
2022-10-16T04:03:34.989Z,14.54
2022-10-16T04:06:03.565Z,14.50
2022-10-16T04:08:32.612Z,14.47
2022-10-16T04:11:02.633Z,14.42
2022-10-16T04:13:31.304Z,14.42
2022-10-16T04:15:59.900Z,14.44
2022-10-16T04:18:29.220Z,14.42
2022-10-16T04:20:57.692Z,14.42
2022-10-16T04:23:26.094Z,14.40
2022-10-16T04:25:54.699Z,14.45
2022-10-16T04:28:24.837Z,14.44
2022-10-16T04:30:53.378Z,14.37
2022-10-16T04:33:21.805Z,14.43
2022-10-16T04:35:50.376Z,14.37
2022-10-16T04:38:18.853Z,14.35
2022-10-16T04:40:47.325Z,14.33
2022-10-16T04:43:15.809Z,14.36
2022-10-16T04:45:45.754Z,14.35
2022-10-16T04:48:14.445Z,14.36
2022-10-16T04:50:43.848Z,14.34
2022-10-16T04:53:12.323Z,14.27
2022-10-16T04:55:40.827Z,14.30
2022-10-16T04:58:09.597Z,14.29
2022-10-16T05:00:39.520Z,14.32
2022-10-16T05:03:10.219Z,14.28
2022-10-16T05:05:39.273Z,14.31
2022-10-16T05:08:07.754Z,14.30
2022-10-16T05:10:36.242Z,14.30
2022-10-16T05:13:04.814Z,14.24
2022-10-16T05:15:33.464Z,14.23
2022-10-16T05:18:02.015Z,14.27
2022-10-16T05:20:32.073Z,14.28
2022-10-16T05:23:01.115Z,14.26
2022-10-16T05:25:29.711Z,14.25
2022-10-16T05:27:58.197Z,14.24
2022-10-16T05:30:26.697Z,14.20
2022-10-16T05:32:55.219Z,14.24
2022-10-16T05:35:24.380Z,14.24
2022-10-16T05:37:55.380Z,14.23
2022-10-16T05:40:24.223Z,14.23
2022-10-16T05:42:56.782Z,14.20
2022-10-16T05:45:25.366Z,14.21
2022-10-16T05:47:53.913Z,14.20
2022-10-16T05:50:22.406Z,14.16
2022-10-16T05:52:50.853Z,14.15
2022-10-16T05:55:20.763Z,14.15
2022-10-16T05:57:49.239Z,14.23
2022-10-16T06:00:17.884Z,14.23
2022-10-16T06:02:46.319Z,14.28
2022-10-16T06:05:14.820Z,14.32
2022-10-16T06:07:43.201Z,14.32
2022-10-16T06:10:11.885Z,14.38
2022-10-16T06:12:41.805Z,14.42
2022-10-16T06:15:11.153Z,14.48
2022-10-16T06:17:39.547Z,14.40
2022-10-16T06:20:08.996Z,14.56
2022-10-16T06:22:37.783Z,14.61
2022-10-16T06:25:07.402Z,14.67
2022-10-16T06:27:35.882Z,14.73
2022-10-16T06:30:06.568Z,14.84
2022-10-16T06:32:35.060Z,14.89
2022-10-16T06:35:04.030Z,14.90
2022-10-16T06:37:32.545Z,14.94
2022-10-16T06:40:01.741Z,14.98
2022-10-16T06:42:30.179Z,15.04
2022-10-16T06:44:58.770Z,15.12
2022-10-16T06:47:30.152Z,15.15
2022-10-16T06:49:58.591Z,15.22
2022-10-16T06:52:27.529Z,15.31
2022-10-16T06:54:56.602Z,15.35
2022-10-16T06:57:25.484Z,15.39
2022-10-16T06:59:55.381Z,15.44
2022-10-16T07:02:24.367Z,15.48
2022-10-16T07:04:54.523Z,15.52
2022-10-16T07:07:25.892Z,15.53
2022-10-16T07:09:54.409Z,15.54
2022-10-16T07:12:22.985Z,15.60
2022-10-16T07:14:53.354Z,15.63
2022-10-16T07:17:22.135Z,15.65
2022-10-16T07:19:50.700Z,15.68
2022-10-16T07:22:20.931Z,15.64
2022-10-16T07:24:52.579Z,15.60
2022-10-16T07:27:23.930Z,15.71
2022-10-16T07:29:52.503Z,15.72
2022-10-16T07:32:20.923Z,15.74
2022-10-16T07:34:49.558Z,15.76
2022-10-16T07:37:19.530Z,15.78
2022-10-16T07:39:48.122Z,15.83
2022-10-16T07:42:16.695Z,15.87
2022-10-16T07:44:45.185Z,15.91
2022-10-16T07:47:13.898Z,15.95
2022-10-16T07:49:42.877Z,15.98
2022-10-16T07:52:11.478Z,16.05
2022-10-16T07:54:41.539Z,16.05
2022-10-16T07:57:10.222Z,16.16
2022-10-16T07:59:38.685Z,16.21
2022-10-16T08:02:07.459Z,16.27
2022-10-16T08:04:36.034Z,16.32
2022-10-16T08:07:04.675Z,16.36
2022-10-16T08:09:33.214Z,16.43
2022-10-16T08:12:03.490Z,16.46
2022-10-16T08:14:31.930Z,16.52
2022-10-16T08:17:00.459Z,16.60
2022-10-16T08:19:28.963Z,16.67
2022-10-16T08:21:57.400Z,16.72
2022-10-16T08:24:26.141Z,16.78
2022-10-16T08:26:56.530Z,16.76
2022-10-16T08:29:26.545Z,16.85
2022-10-16T08:31:55.016Z,16.94
2022-10-16T08:34:23.569Z,16.95
2022-10-16T08:36:52.055Z,17.01
2022-10-16T08:39:20.593Z,17.06
2022-10-16T08:42:07.532Z,17.12
2022-10-16T08:45:08.628Z,17.16
2022-10-16T08:47:47.546Z,17.23
2022-10-16T08:50:21.177Z,17.27
2022-10-16T08:52:49.840Z,17.31
2022-10-16T08:55:30.968Z,17.34
2022-10-16T08:57:59.721Z,17.37
2022-10-16T09:00:30.297Z,17.40
2022-10-16T09:03:10.178Z,17.44
2022-10-16T09:06:02.734Z,17.48
2022-10-16T09:08:38.226Z,17.52
2022-10-16T09:11:14.114Z,17.57
2022-10-16T09:13:51.076Z,17.59
2022-10-16T09:16:25.923Z,17.69
2022-10-16T09:19:01.182Z,17.74
2022-10-16T09:21:32.422Z,17.80
2022-10-16T09:24:07.459Z,17.86
2022-10-16T09:26:35.861Z,17.95
2022-10-16T09:29:05.916Z,18.00
2022-10-16T09:31:39.642Z,18.09
2022-10-16T09:34:20.000Z,18.17
2022-10-16T09:36:49.057Z,18.23
2022-10-16T09:39:17.431Z,18.33
2022-10-16T09:41:47.841Z,18.37
2022-10-16T09:44:24.208Z,18.47
2022-10-16T09:47:04.021Z,18.51
2022-10-16T09:49:32.563Z,18.55
2022-10-16T09:52:08.112Z,18.64
2022-10-16T09:54:36.490Z,18.70
2022-10-16T09:57:11.838Z,18.75
2022-10-16T09:59:49.082Z,18.84
2022-10-16T10:02:21.065Z,18.88
2022-10-16T10:04:55.357Z,18.97
2022-10-16T10:07:28.416Z,19.01
2022-10-16T10:09:59.386Z,19.05
2022-10-16T10:12:30.509Z,19.23
2022-10-16T10:15:00.461Z,19.33
2022-10-16T10:17:31.547Z,19.48
2022-10-16T10:20:02.453Z,19.65
2022-10-16T10:22:42.742Z,19.76
2022-10-16T10:25:37.578Z,19.98
2022-10-16T10:28:23.338Z,20.18
2022-10-16T10:30:59.276Z,20.42
2022-10-16T10:33:36.012Z,20.63
2022-10-16T10:36:17.721Z,20.87
2022-10-16T10:38:52.829Z,21.05
2022-10-16T10:41:38.567Z,21.20
2022-10-16T10:44:20.593Z,21.27
2022-10-16T10:46:54.257Z,21.40
2022-10-16T10:49:37.779Z,21.49
2022-10-16T10:52:35.214Z,21.62
2022-10-16T10:55:15.565Z,21.82
2022-10-16T10:57:55.923Z,21.95
2022-10-16T11:00:30.772Z,22.05
2022-10-16T11:03:11.997Z,22.19
2022-10-16T11:05:44.815Z,22.32
2022-10-16T11:08:19.857Z,22.43
2022-10-16T11:10:54.869Z,22.44
2022-10-16T11:13:31.680Z,22.54
2022-10-16T11:16:04.366Z,22.57
2022-10-16T11:18:39.592Z,22.58
2022-10-16T11:21:12.849Z,22.61
2022-10-16T11:23:45.382Z,22.61
2022-10-16T11:26:20.509Z,22.71
2022-10-16T11:28:51.959Z,22.77
2022-10-16T11:31:30.167Z,22.75
2022-10-16T11:34:08.537Z,22.71
2022-10-16T11:36:45.060Z,22.58
2022-10-16T11:39:28.572Z,22.44
2022-10-16T11:42:02.353Z,22.31
2022-10-16T11:44:44.992Z,22.34
2022-10-16T11:47:46.730Z,22.44
2022-10-16T11:50:25.265Z,22.59
2022-10-16T11:53:03.779Z,22.69
2022-10-16T11:55:41.753Z,22.76
2022-10-16T11:58:24.324Z,22.82
2022-10-16T12:01:02.923Z,22.77
2022-10-16T12:03:38.430Z,22.62
2022-10-16T12:06:22.323Z,22.62
2022-10-16T12:08:53.414Z,22.50
2022-10-16T12:11:37.529Z,22.39
2022-10-16T12:14:21.905Z,22.35
2022-10-16T12:16:56.511Z,22.29
2022-10-16T12:19:26.990Z,22.26
2022-10-16T12:21:58.803Z,22.15
2022-10-16T12:24:38.977Z,22.01
2022-10-16T12:27:22.877Z,21.96
2022-10-16T12:29:58.442Z,21.91
2022-10-16T12:32:48.055Z,21.86
2022-10-16T12:35:23.479Z,21.72
2022-10-16T12:37:53.274Z,21.67
2022-10-16T12:40:33.505Z,21.67
2022-10-16T12:43:02.054Z,21.64
2022-10-16T12:45:33.446Z,21.56
2022-10-16T12:48:03.973Z,21.47
2022-10-16T12:50:36.681Z,21.43
2022-10-16T12:53:19.615Z,21.42
2022-10-16T12:56:00.308Z,21.42
2022-10-16T12:58:54.333Z,21.37
2022-10-16T13:01:43.312Z,21.35
2022-10-16T13:04:43.458Z,21.34
2022-10-16T13:07:31.693Z,21.34
2022-10-16T13:10:13.072Z,21.32
2022-10-16T13:13:04.067Z,21.30
2022-10-16T13:15:43.836Z,21.28
2022-10-16T13:18:18.379Z,21.27
2022-10-16T13:21:03.622Z,21.25
2022-10-16T13:23:40.675Z,21.08
2022-10-16T13:26:21.078Z,21.18
2022-10-16T13:28:51.700Z,21.11
2022-10-16T13:31:25.123Z,21.07
2022-10-16T13:33:56.609Z,21.01
2022-10-16T13:36:26.647Z,21.10
2022-10-16T13:39:14.689Z,21.16
2022-10-16T13:41:43.817Z,21.10
2022-10-16T13:44:23.297Z,21.17
2022-10-16T13:47:01.292Z,21.24
2022-10-16T13:49:29.844Z,21.32
2022-10-16T13:52:00.248Z,21.46
2022-10-16T13:54:31.113Z,21.56
2022-10-16T13:57:26.209Z,21.65
2022-10-16T13:59:58.290Z,21.67
2022-10-16T14:02:31.552Z,21.82
2022-10-16T14:05:01.047Z,21.94
2022-10-16T14:07:32.405Z,22.05
2022-10-16T14:10:06.310Z,22.16
2022-10-16T14:12:35.723Z,22.19
2022-10-16T14:15:06.596Z,22.32
2022-10-16T14:17:37.638Z,22.47
2022-10-16T14:20:08.723Z,22.57
2022-10-16T14:22:41.232Z,22.66
2022-10-16T14:25:30.205Z,22.71
2022-10-16T14:28:04.558Z,22.70
2022-10-16T14:30:37.597Z,22.69
2022-10-16T14:33:07.718Z,22.73
2022-10-16T14:35:38.425Z,22.71
2022-10-16T14:38:09.109Z,22.67
2022-10-16T14:40:39.685Z,22.60
2022-10-16T14:43:08.317Z,22.41
2022-10-16T14:45:39.690Z,22.41
2022-10-16T14:48:19.707Z,22.40
2022-10-16T14:50:48.639Z,22.34
2022-10-16T14:53:17.323Z,22.29
2022-10-16T14:55:46.234Z,22.23
2022-10-16T14:58:18.385Z,22.16
2022-10-16T15:00:51.781Z,22.07
2022-10-16T15:03:20.321Z,22.06
2022-10-16T15:05:48.850Z,22.02
2022-10-16T15:08:17.677Z,21.99
2022-10-16T15:10:46.904Z,21.94
2022-10-16T15:13:16.170Z,21.86
2022-10-16T15:15:46.233Z,21.85
2022-10-16T15:18:22.465Z,21.81
2022-10-16T15:20:51.678Z,21.61
2022-10-16T15:23:22.061Z,21.66
2022-10-16T15:25:52.212Z,21.67
2022-10-16T15:28:22.059Z,21.67
2022-10-16T15:30:52.979Z,21.62
2022-10-16T15:33:25.036Z,21.70
2022-10-16T15:35:55.226Z,21.70
2022-10-16T15:38:24.684Z,21.65
2022-10-16T15:40:53.257Z,21.52
2022-10-16T15:43:21.811Z,21.46
2022-10-16T15:46:01.231Z,21.25
2022-10-16T15:48:32.180Z,21.14
2022-10-16T15:51:00.983Z,21.06
2022-10-16T15:53:29.505Z,20.90
2022-10-16T15:55:58.366Z,20.78
2022-10-16T15:58:27.002Z,20.72
2022-10-16T16:00:58.766Z,20.66
2022-10-16T16:03:27.658Z,20.64
2022-10-16T16:05:58.000Z,20.64
2022-10-16T16:08:26.770Z,20.63
2022-10-16T16:11:02.024Z,20.54
2022-10-16T16:13:30.967Z,20.49
2022-10-16T16:16:00.020Z,20.45
2022-10-16T16:18:29.870Z,20.45
2022-10-16T16:20:59.757Z,20.44
2022-10-16T16:23:28.329Z,20.43
2022-10-16T16:26:10.988Z,20.40
2022-10-16T16:28:39.848Z,20.33
2022-10-16T16:31:08.841Z,20.23
2022-10-16T16:33:37.883Z,20.09
2022-10-16T16:36:13.109Z,20.07
2022-10-16T16:38:43.956Z,20.12
2022-10-16T16:41:16.301Z,19.93
2022-10-16T16:43:44.894Z,19.97
2022-10-16T16:46:13.933Z,19.98
2022-10-16T16:48:42.875Z,19.94
2022-10-16T16:51:17.157Z,19.80
2022-10-16T16:53:49.913Z,19.85
2022-10-16T16:56:19.307Z,19.72
2022-10-16T16:58:51.154Z,19.73
2022-10-16T17:01:21.362Z,19.69
2022-10-16T17:03:53.126Z,19.47
2022-10-16T17:06:24.799Z,19.54
2022-10-16T17:08:53.598Z,19.45
2022-10-16T17:11:24.122Z,19.30
2022-10-16T17:13:56.800Z,19.37
2022-10-16T17:16:27.091Z,19.41
2022-10-16T17:18:55.648Z,19.42
2022-10-16T17:21:27.081Z,19.37
2022-10-16T17:23:55.712Z,19.45
2022-10-16T17:26:24.186Z,19.51
2022-10-16T17:28:54.699Z,19.52
2022-10-16T17:31:24.853Z,19.53
2022-10-16T17:33:53.594Z,19.52
2022-10-16T17:36:23.358Z,19.38
2022-10-16T17:38:53.356Z,19.41
2022-10-16T17:41:23.613Z,19.36
2022-10-16T17:43:53.096Z,19.33
2022-10-16T17:46:24.526Z,19.29
2022-10-16T17:48:56.001Z,19.26
2022-10-16T17:51:28.197Z,19.21
2022-10-16T17:53:59.720Z,19.15
2022-10-16T17:56:29.209Z,19.14
2022-10-16T17:59:01.070Z,19.11
2022-10-16T18:01:31.657Z,19.06
2022-10-16T18:04:01.650Z,19.03
2022-10-16T18:06:31.447Z,19.05
2022-10-16T18:09:02.290Z,19.07
2022-10-16T18:11:31.209Z,19.06
2022-10-16T18:14:00.927Z,19.04
2022-10-16T18:16:31.385Z,19.04
2022-10-16T18:19:01.065Z,19.03
2022-10-16T18:21:30.074Z,19.00
2022-10-16T18:24:01.694Z,18.98
2022-10-16T18:26:30.531Z,18.98
2022-10-16T18:29:00.832Z,18.96
2022-10-16T18:31:29.340Z,18.93
2022-10-16T18:33:59.172Z,18.88
2022-10-16T18:36:30.518Z,18.87
2022-10-16T18:39:00.098Z,18.83
2022-10-16T18:41:32.898Z,18.79
2022-10-16T18:44:01.817Z,18.78
2022-10-16T18:46:30.894Z,18.61
2022-10-16T18:49:00.790Z,18.59
2022-10-16T18:51:32.288Z,18.69
2022-10-16T18:54:03.303Z,18.74
2022-10-16T18:56:34.049Z,18.78
2022-10-16T18:59:04.598Z,18.79
2022-10-16T19:01:35.482Z,18.70
2022-10-16T19:04:06.796Z,18.75
2022-10-16T19:06:37.720Z,18.74
2022-10-16T19:09:08.820Z,18.69
2022-10-16T19:11:41.597Z,18.68
2022-10-16T19:14:10.973Z,18.68
2022-10-16T19:16:40.804Z,18.62
2022-10-16T19:19:11.779Z,18.62
2022-10-16T19:21:41.671Z,18.57
2022-10-16T19:24:14.150Z,18.53
2022-10-16T19:26:44.853Z,18.47
2022-10-16T19:29:13.742Z,18.45
2022-10-16T19:31:42.697Z,18.44
2022-10-16T19:34:15.755Z,18.41
2022-10-16T19:36:44.315Z,18.41
2022-10-16T19:39:16.088Z,18.39
2022-10-16T19:41:47.642Z,18.37
2022-10-16T19:44:17.953Z,18.31
2022-10-16T19:46:48.412Z,18.28
2022-10-16T19:49:21.924Z,18.26
2022-10-16T19:51:52.010Z,18.23
2022-10-16T19:54:20.620Z,18.20
2022-10-16T19:56:52.790Z,18.19
2022-10-16T19:59:21.506Z,18.18
2022-10-16T20:01:50.102Z,18.17
2022-10-16T20:04:18.683Z,18.19
2022-10-16T20:06:47.483Z,18.17
2022-10-16T20:09:16.117Z,18.13
2022-10-16T20:11:44.723Z,18.13
2022-10-16T20:14:15.241Z,18.10
2022-10-16T20:16:43.834Z,18.08
2022-10-16T20:19:12.975Z,18.05
2022-10-16T20:21:41.771Z,18.01
2022-10-16T20:24:10.424Z,17.99
2022-10-16T20:26:39.291Z,17.97
2022-10-16T20:29:08.335Z,17.95
2022-10-16T20:31:38.947Z,17.95
2022-10-16T20:34:09.270Z,17.96
2022-10-16T20:36:39.098Z,17.96
2022-10-16T20:39:08.576Z,17.96
2022-10-16T20:41:37.221Z,17.98
2022-10-16T20:44:05.904Z,17.89
2022-10-16T20:46:35.019Z,17.89
2022-10-16T20:49:11.545Z,17.94
2022-10-16T20:51:45.823Z,17.89
2022-10-16T20:54:14.472Z,17.91
2022-10-16T20:56:46.017Z,17.89
2022-10-16T20:59:14.710Z,17.82
2022-10-16T21:01:43.310Z,17.78
2022-10-16T21:04:13.635Z,17.74
2022-10-16T21:06:42.394Z,17.69
2022-10-16T21:09:10.943Z,17.60
2022-10-16T21:11:40.419Z,17.60
2022-10-16T21:14:10.877Z,17.56
2022-10-16T21:16:39.448Z,17.49
2022-10-16T21:19:08.515Z,17.47
2022-10-16T21:21:39.496Z,17.44
2022-10-16T21:24:12.228Z,17.41
2022-10-16T21:26:43.585Z,17.39
2022-10-16T21:29:12.331Z,17.37
2022-10-16T21:31:41.605Z,17.31
2022-10-16T21:34:10.171Z,17.29
2022-10-16T21:36:42.074Z,17.22
2022-10-16T21:39:12.430Z,17.18
2022-10-16T21:41:41.569Z,17.12
2022-10-16T21:44:10.880Z,17.09
2022-10-16T21:46:41.850Z,17.17
2022-10-16T21:49:14.182Z,17.39
2022-10-16T21:51:46.816Z,17.46
2022-10-16T21:54:17.454Z,17.39
2022-10-16T21:56:45.995Z,17.26
2022-10-16T21:59:15.712Z,17.08
2022-10-16T22:01:44.725Z,17.06
2022-10-16T22:04:14.218Z,16.82
2022-10-16T22:06:45.057Z,16.78
2022-10-16T22:09:14.888Z,16.78
2022-10-16T22:11:44.910Z,16.80
2022-10-16T22:14:15.583Z,16.79
2022-10-16T22:16:44.265Z,16.77
2022-10-16T22:19:13.833Z,16.74
2022-10-16T22:21:46.260Z,16.73
2022-10-16T22:24:15.262Z,16.68
2022-10-16T22:26:43.911Z,16.66
2022-10-16T22:29:14.490Z,16.62
2022-10-16T22:31:43.086Z,16.57
2022-10-16T22:34:14.933Z,16.52
2022-10-16T22:36:45.162Z,16.48
2022-10-16T22:39:13.690Z,16.45
2022-10-16T22:41:42.394Z,16.68
2022-10-16T22:44:13.969Z,16.68
2022-10-16T22:46:42.568Z,16.63
2022-10-16T22:49:11.277Z,16.56
2022-10-16T22:51:39.751Z,16.68
2022-10-16T22:54:09.710Z,16.92
2022-10-16T22:56:38.324Z,16.85
2022-10-16T22:59:07.110Z,16.76
2022-10-16T23:01:37.350Z,16.67
2022-10-16T23:04:06.439Z,16.50
2022-10-16T23:06:35.026Z,16.46
2022-10-16T23:09:04.789Z,16.39
2022-10-16T23:11:37.609Z,16.67
2022-10-16T23:14:06.481Z,16.91
2022-10-16T23:16:35.005Z,17.03
2022-10-16T23:19:03.530Z,16.90
2022-10-16T23:21:32.078Z,16.60
2022-10-16T23:24:01.700Z,16.46
2022-10-16T23:26:30.378Z,16.37
2022-10-16T23:29:00.546Z,16.22
2022-10-16T23:31:30.360Z,16.00
2022-10-16T23:33:59.409Z,15.82
2022-10-16T23:36:28.124Z,15.78
2022-10-16T23:38:56.940Z,15.80
2022-10-16T23:41:25.320Z,15.83
2022-10-16T23:43:54.111Z,15.81
2022-10-16T23:48:53.485Z,15.77
2022-10-16T23:51:22.122Z,15.76
2022-10-16T23:53:50.540Z,15.77
2022-10-16T23:56:19.056Z,15.69
2022-10-16T23:58:47.727Z,15.74
